sensor_id;sensor_type;location;lat;lon;timestamp;P1;durP1;ratioP1;P2;durP2;ratioP2
37843;SDS011;63793;57.632;18.292;2023-06-24T00:00:10;7.20;;;5.75;;
37843;SDS011;63793;57.632;18.292;2023-06-24T00:02:39;6.00;;;5.05;;
37843;SDS011;63793;57.632;18.292;2023-06-24T00:05:10;5.72;;;5.00;;
37843;SDS011;63793;57.632;18.292;2023-06-24T00:07:37;5.07;;;4.60;;
37843;SDS011;63793;57.632;18.292;2023-06-24T00:10:14;6.55;;;5.97;;
37843;SDS011;63793;57.632;18.292;2023-06-24T00:12:43;5.38;;;4.88;;
37843;SDS011;63793;57.632;18.292;2023-06-24T00:15:11;4.97;;;4.53;;
37843;SDS011;63793;57.632;18.292;2023-06-24T00:17:38;6.88;;;5.03;;
37843;SDS011;63793;57.632;18.292;2023-06-24T00:20:06;5.75;;;4.85;;
37843;SDS011;63793;57.632;18.292;2023-06-24T00:22:36;5.73;;;5.17;;
37843;SDS011;63793;57.632;18.292;2023-06-24T00:25:11;5.15;;;4.65;;
37843;SDS011;63793;57.632;18.292;2023-06-24T00:27:38;4.88;;;4.47;;
37843;SDS011;63793;57.632;18.292;2023-06-24T00:30:05;7.13;;;5.97;;
37843;SDS011;63793;57.632;18.292;2023-06-24T00:32:34;6.47;;;5.85;;
37843;SDS011;63793;57.632;18.292;2023-06-24T00:35:01;6.38;;;5.35;;
37843;SDS011;63793;57.632;18.292;2023-06-24T00:37:28;5.47;;;4.97;;
37843;SDS011;63793;57.632;18.292;2023-06-24T00:39:55;7.80;;;6.82;;
37843;SDS011;63793;57.632;18.292;2023-06-24T00:42:22;8.13;;;6.53;;
37843;SDS011;63793;57.632;18.292;2023-06-24T00:44:49;9.35;;;6.55;;
37843;SDS011;63793;57.632;18.292;2023-06-24T00:47:16;7.07;;;5.45;;
37843;SDS011;63793;57.632;18.292;2023-06-24T00:49:43;7.55;;;6.20;;
37843;SDS011;63793;57.632;18.292;2023-06-24T00:52:12;7.25;;;6.55;;
37843;SDS011;63793;57.632;18.292;2023-06-24T00:54:42;8.10;;;5.72;;
37843;SDS011;63793;57.632;18.292;2023-06-24T00:57:10;9.00;;;6.97;;
37843;SDS011;63793;57.632;18.292;2023-06-24T00:59:38;8.88;;;5.93;;
37843;SDS011;63793;57.632;18.292;2023-06-24T01:02:06;8.18;;;6.25;;
37843;SDS011;63793;57.632;18.292;2023-06-24T01:04:33;9.15;;;6.22;;
37843;SDS011;63793;57.632;18.292;2023-06-24T01:07:01;11.48;;;8.00;;
37843;SDS011;63793;57.632;18.292;2023-06-24T01:09:28;9.52;;;7.47;;
37843;SDS011;63793;57.632;18.292;2023-06-24T01:11:55;9.40;;;6.68;;
37843;SDS011;63793;57.632;18.292;2023-06-24T01:14:23;7.45;;;6.72;;
37843;SDS011;63793;57.632;18.292;2023-06-24T01:17:01;9.82;;;8.23;;
37843;SDS011;63793;57.632;18.292;2023-06-24T01:34:03;11.48;;;9.48;;
37843;SDS011;63793;57.632;18.292;2023-06-24T01:36:21;10.10;;;8.63;;
37843;SDS011;63793;57.632;18.292;2023-06-24T01:38:52;11.20;;;10.10;;
37843;SDS011;63793;57.632;18.292;2023-06-24T01:41:29;16.00;;;10.10;;
37843;SDS011;63793;57.632;18.292;2023-06-24T01:44:00;11.82;;;8.93;;
37843;SDS011;63793;57.632;18.292;2023-06-24T01:46:29;11.27;;;10.07;;
37843;SDS011;63793;57.632;18.292;2023-06-24T01:48:58;11.73;;;9.30;;
37843;SDS011;63793;57.632;18.292;2023-06-24T01:51:29;11.75;;;10.25;;
37843;SDS011;63793;57.632;18.292;2023-06-24T01:54:00;11.65;;;9.38;;
37843;SDS011;63793;57.632;18.292;2023-06-24T01:56:29;18.48;;;11.63;;
37843;SDS011;63793;57.632;18.292;2023-06-24T01:58:58;11.48;;;9.85;;
37843;SDS011;63793;57.632;18.292;2023-06-24T02:01:27;14.32;;;10.85;;
37843;SDS011;63793;57.632;18.292;2023-06-24T02:03:58;14.45;;;11.35;;
37843;SDS011;63793;57.632;18.292;2023-06-24T02:06:27;13.50;;;10.15;;
37843;SDS011;63793;57.632;18.292;2023-06-24T02:08:57;12.75;;;11.40;;
37843;SDS011;63793;57.632;18.292;2023-06-24T02:11:25;12.68;;;10.63;;
37843;SDS011;63793;57.632;18.292;2023-06-24T02:13:54;14.05;;;11.77;;
37843;SDS011;63793;57.632;18.292;2023-06-24T02:16:22;13.88;;;11.35;;
37843;SDS011;63793;57.632;18.292;2023-06-24T02:18:50;13.93;;;10.60;;
37843;SDS011;63793;57.632;18.292;2023-06-24T02:21:18;14.48;;;10.73;;
37843;SDS011;63793;57.632;18.292;2023-06-24T02:23:49;12.43;;;11.05;;
37843;SDS011;63793;57.632;18.292;2023-06-24T02:26:17;14.73;;;10.80;;
37843;SDS011;63793;57.632;18.292;2023-06-24T02:28:45;16.30;;;9.95;;
37843;SDS011;63793;57.632;18.292;2023-06-24T02:31:14;12.07;;;10.77;;
37843;SDS011;63793;57.632;18.292;2023-06-24T02:33:42;12.25;;;9.20;;
37843;SDS011;63793;57.632;18.292;2023-06-24T02:36:10;12.00;;;10.80;;
37843;SDS011;63793;57.632;18.292;2023-06-24T02:38:37;12.90;;;9.82;;
37843;SDS011;63793;57.632;18.292;2023-06-24T02:41:04;12.10;;;10.90;;
37843;SDS011;63793;57.632;18.292;2023-06-24T02:43:32;13.13;;;10.07;;
37843;SDS011;63793;57.632;18.292;2023-06-24T02:45:59;14.82;;;10.30;;
37843;SDS011;63793;57.632;18.292;2023-06-24T02:48:29;11.47;;;9.50;;
37843;SDS011;63793;57.632;18.292;2023-06-24T02:50:58;11.95;;;10.30;;
37843;SDS011;63793;57.632;18.292;2023-06-24T02:53:26;11.88;;;10.77;;
37843;SDS011;63793;57.632;18.292;2023-06-24T02:55:55;11.90;;;10.70;;
37843;SDS011;63793;57.632;18.292;2023-06-24T02:58:23;13.60;;;11.27;;
37843;SDS011;63793;57.632;18.292;2023-06-24T03:01:01;12.65;;;9.65;;
37843;SDS011;63793;57.632;18.292;2023-06-24T03:03:55;14.40;;;12.20;;
37843;SDS011;63793;57.632;18.292;2023-06-24T03:06:23;11.77;;;10.40;;
37843;SDS011;63793;57.632;18.292;2023-06-24T03:08:54;13.75;;;10.55;;
37843;SDS011;63793;57.632;18.292;2023-06-24T03:11:22;13.75;;;10.93;;
37843;SDS011;63793;57.632;18.292;2023-06-24T03:13:49;16.45;;;12.32;;
37843;SDS011;63793;57.632;18.292;2023-06-24T03:16:28;13.53;;;10.53;;
37843;SDS011;63793;57.632;18.292;2023-06-24T03:19:01;15.02;;;10.90;;
37843;SDS011;63793;57.632;18.292;2023-06-24T03:21:28;11.15;;;9.95;;
37843;SDS011;63793;57.632;18.292;2023-06-24T03:24:04;11.57;;;9.75;;
37843;SDS011;63793;57.632;18.292;2023-06-24T03:26:32;11.02;;;9.65;;
37843;SDS011;63793;57.632;18.292;2023-06-24T03:29:04;12.73;;;11.07;;
37843;SDS011;63793;57.632;18.292;2023-06-24T03:31:32;14.30;;;10.82;;
37843;SDS011;63793;57.632;18.292;2023-06-24T03:34:00;15.68;;;12.60;;
37843;SDS011;63793;57.632;18.292;2023-06-24T03:36:27;17.23;;;13.43;;
37843;SDS011;63793;57.632;18.292;2023-06-24T03:38:54;15.18;;;12.73;;
37843;SDS011;63793;57.632;18.292;2023-06-24T03:41:21;20.13;;;14.50;;
37843;SDS011;63793;57.632;18.292;2023-06-24T03:43:48;21.23;;;15.45;;
37843;SDS011;63793;57.632;18.292;2023-06-24T03:46:15;18.83;;;14.10;;
37843;SDS011;63793;57.632;18.292;2023-06-24T03:48:42;16.67;;;14.77;;
37843;SDS011;63793;57.632;18.292;2023-06-24T03:51:11;17.05;;;13.98;;
37843;SDS011;63793;57.632;18.292;2023-06-24T03:53:38;17.67;;;14.18;;
37843;SDS011;63793;57.632;18.292;2023-06-24T03:56:05;18.58;;;14.57;;
37843;SDS011;63793;57.632;18.292;2023-06-24T03:58:32;17.52;;;13.98;;
37843;SDS011;63793;57.632;18.292;2023-06-24T04:00:59;16.88;;;15.00;;
37843;SDS011;63793;57.632;18.292;2023-06-24T04:03:28;20.02;;;13.18;;
37843;SDS011;63793;57.632;18.292;2023-06-24T04:05:55;13.98;;;12.48;;
37843;SDS011;63793;57.632;18.292;2023-06-24T04:08:23;16.10;;;12.93;;
37843;SDS011;63793;57.632;18.292;2023-06-24T04:10:55;12.10;;;10.75;;
37843;SDS011;63793;57.632;18.292;2023-06-24T04:13:29;13.98;;;11.98;;
37843;SDS011;63793;57.632;18.292;2023-06-24T04:16:00;14.98;;;11.65;;
37843;SDS011;63793;57.632;18.292;2023-06-24T04:18:26;14.30;;;10.27;;
37843;SDS011;63793;57.632;18.292;2023-06-24T04:20:54;14.07;;;10.60;;
37843;SDS011;63793;57.632;18.292;2023-06-24T04:23:21;10.52;;;9.43;;
37843;SDS011;63793;57.632;18.292;2023-06-24T04:25:48;11.35;;;9.43;;
37843;SDS011;63793;57.632;18.292;2023-06-24T04:28:15;13.27;;;9.95;;
37843;SDS011;63793;57.632;18.292;2023-06-24T04:30:42;11.75;;;10.23;;
37843;SDS011;63793;57.632;18.292;2023-06-24T04:33:08;11.13;;;9.20;;
37843;SDS011;63793;57.632;18.292;2023-06-24T04:35:35;9.90;;;9.00;;
37843;SDS011;63793;57.632;18.292;2023-06-24T04:38:04;11.82;;;8.82;;
37843;SDS011;63793;57.632;18.292;2023-06-24T04:40:31;12.38;;;9.75;;
37843;SDS011;63793;57.632;18.292;2023-06-24T04:42:58;8.93;;;7.65;;
37843;SDS011;63793;57.632;18.292;2023-06-24T04:45:25;11.13;;;7.93;;
37843;SDS011;63793;57.632;18.292;2023-06-24T04:47:52;11.15;;;7.75;;
37843;SDS011;63793;57.632;18.292;2023-06-24T04:50:19;8.85;;;7.40;;
37843;SDS011;63793;57.632;18.292;2023-06-24T04:52:51;8.98;;;7.40;;
37843;SDS011;63793;57.632;18.292;2023-06-24T04:55:21;7.25;;;6.63;;
37843;SDS011;63793;57.632;18.292;2023-06-24T04:57:48;8.38;;;5.90;;
37843;SDS011;63793;57.632;18.292;2023-06-24T05:00:15;8.73;;;7.40;;
37843;SDS011;63793;57.632;18.292;2023-06-24T05:02:42;6.55;;;5.93;;
37843;SDS011;63793;57.632;18.292;2023-06-24T05:05:09;6.05;;;5.32;;
37843;SDS011;63793;57.632;18.292;2023-06-24T05:07:36;6.78;;;5.63;;
37843;SDS011;63793;57.632;18.292;2023-06-24T05:10:03;6.63;;;5.95;;
37843;SDS011;63793;57.632;18.292;2023-06-24T05:12:30;6.25;;;5.65;;
37843;SDS011;63793;57.632;18.292;2023-06-24T05:14:57;8.18;;;5.82;;
37843;SDS011;63793;57.632;18.292;2023-06-24T05:17:24;5.32;;;4.80;;
37843;SDS011;63793;57.632;18.292;2023-06-24T05:19:51;9.80;;;6.03;;
37843;SDS011;63793;57.632;18.292;2023-06-24T05:22:18;5.38;;;4.88;;
37843;SDS011;63793;57.632;18.292;2023-06-24T05:24:45;7.82;;;4.97;;
37843;SDS011;63793;57.632;18.292;2023-06-24T05:27:12;5.40;;;4.78;;
37843;SDS011;63793;57.632;18.292;2023-06-24T05:29:39;8.40;;;4.45;;
37843;SDS011;63793;57.632;18.292;2023-06-24T05:32:06;7.00;;;4.30;;
37843;SDS011;63793;57.632;18.292;2023-06-24T05:34:33;5.28;;;4.75;;
37843;SDS011;63793;57.632;18.292;2023-06-24T05:37:01;5.47;;;3.85;;
37843;SDS011;63793;57.632;18.292;2023-06-24T05:39:28;4.00;;;3.70;;
37843;SDS011;63793;57.632;18.292;2023-06-24T05:41:56;4.32;;;3.50;;
37843;SDS011;63793;57.632;18.292;2023-06-24T05:44:23;5.43;;;3.60;;
37843;SDS011;63793;57.632;18.292;2023-06-24T05:46:49;5.72;;;3.78;;
37843;SDS011;63793;57.632;18.292;2023-06-24T05:49:16;4.68;;;4.03;;
37843;SDS011;63793;57.632;18.292;2023-06-24T05:51:43;4.28;;;3.88;;
37843;SDS011;63793;57.632;18.292;2023-06-24T05:54:10;4.63;;;4.15;;
37843;SDS011;63793;57.632;18.292;2023-06-24T05:56:37;4.47;;;3.97;;
37843;SDS011;63793;57.632;18.292;2023-06-24T05:59:05;4.38;;;3.97;;
37843;SDS011;63793;57.632;18.292;2023-06-24T06:01:32;4.90;;;4.10;;
37843;SDS011;63793;57.632;18.292;2023-06-24T06:03:59;5.45;;;3.42;;
37843;SDS011;63793;57.632;18.292;2023-06-24T06:06:26;3.25;;;2.95;;
37843;SDS011;63793;57.632;18.292;2023-06-24T06:08:53;4.53;;;3.60;;
37843;SDS011;63793;57.632;18.292;2023-06-24T06:11:20;3.90;;;3.50;;
37843;SDS011;63793;57.632;18.292;2023-06-24T06:13:47;3.70;;;3.20;;
37843;SDS011;63793;57.632;18.292;2023-06-24T06:16:14;5.72;;;3.95;;
37843;SDS011;63793;57.632;18.292;2023-06-24T06:18:41;3.92;;;3.45;;
37843;SDS011;63793;57.632;18.292;2023-06-24T06:21:07;3.72;;;3.42;;
37843;SDS011;63793;57.632;18.292;2023-06-24T06:23:34;4.28;;;3.88;;
37843;SDS011;63793;57.632;18.292;2023-06-24T06:26:01;4.32;;;3.90;;
37843;SDS011;63793;57.632;18.292;2023-06-24T06:28:28;3.40;;;3.10;;
37843;SDS011;63793;57.632;18.292;2023-06-24T06:30:55;4.03;;;3.63;;
37843;SDS011;63793;57.632;18.292;2023-06-24T06:33:23;6.35;;;4.28;;
37843;SDS011;63793;57.632;18.292;2023-06-24T06:35:50;4.68;;;3.70;;
37843;SDS011;63793;57.632;18.292;2023-06-24T06:38:17;3.55;;;2.92;;
37843;SDS011;63793;57.632;18.292;2023-06-24T06:40:44;3.15;;;2.85;;
37843;SDS011;63793;57.632;18.292;2023-06-24T06:43:11;3.08;;;2.78;;
37843;SDS011;63793;57.632;18.292;2023-06-24T06:45:37;4.80;;;3.20;;
37843;SDS011;63793;57.632;18.292;2023-06-24T06:48:05;5.78;;;3.30;;
37843;SDS011;63793;57.632;18.292;2023-06-24T06:50:34;3.67;;;3.05;;
37843;SDS011;63793;57.632;18.292;2023-06-24T06:53:01;3.63;;;3.33;;
37843;SDS011;63793;57.632;18.292;2023-06-24T06:55:28;3.72;;;2.95;;
37843;SDS011;63793;57.632;18.292;2023-06-24T06:57:55;4.00;;;3.00;;
37843;SDS011;63793;57.632;18.292;2023-06-24T07:00:22;3.38;;;2.75;;
37843;SDS011;63793;57.632;18.292;2023-06-24T07:02:49;2.60;;;2.40;;
37843;SDS011;63793;57.632;18.292;2023-06-24T07:05:16;4.57;;;2.58;;
37843;SDS011;63793;57.632;18.292;2023-06-24T07:07:43;3.53;;;3.20;;
37843;SDS011;63793;57.632;18.292;2023-06-24T07:10:11;3.75;;;2.85;;
37843;SDS011;63793;57.632;18.292;2023-06-24T07:12:39;3.15;;;2.90;;
37843;SDS011;63793;57.632;18.292;2023-06-24T07:15:06;4.07;;;2.97;;
37843;SDS011;63793;57.632;18.292;2023-06-24T07:17:37;3.53;;;2.78;;
37843;SDS011;63793;57.632;18.292;2023-06-24T07:20:04;2.20;;;1.98;;
37843;SDS011;63793;57.632;18.292;2023-06-24T07:22:32;3.10;;;2.90;;
37843;SDS011;63793;57.632;18.292;2023-06-24T07:24:59;6.85;;;3.60;;
37843;SDS011;63793;57.632;18.292;2023-06-24T07:27:26;3.40;;;2.90;;
37843;SDS011;63793;57.632;18.292;2023-06-24T07:29:53;3.00;;;2.75;;
37843;SDS011;63793;57.632;18.292;2023-06-24T07:32:20;3.33;;;2.90;;
37843;SDS011;63793;57.632;18.292;2023-06-24T07:34:47;3.13;;;2.53;;
37843;SDS011;63793;57.632;18.292;2023-06-24T07:37:14;2.67;;;2.47;;
37843;SDS011;63793;57.632;18.292;2023-06-24T07:39:50;4.43;;;2.92;;
37843;SDS011;63793;57.632;18.292;2023-06-24T07:42:17;2.70;;;2.50;;
37843;SDS011;63793;57.632;18.292;2023-06-24T07:44:45;3.67;;;3.38;;
37843;SDS011;63793;57.632;18.292;2023-06-24T07:47:13;3.08;;;2.53;;
37843;SDS011;63793;57.632;18.292;2023-06-24T07:49:40;3.30;;;2.85;;
37843;SDS011;63793;57.632;18.292;2023-06-24T07:52:07;2.25;;;2.08;;
37843;SDS011;63793;57.632;18.292;2023-06-24T07:54:34;3.85;;;2.67;;
37843;SDS011;63793;57.632;18.292;2023-06-24T07:57:02;2.50;;;2.30;;
37843;SDS011;63793;57.632;18.292;2023-06-24T07:59:29;3.80;;;2.78;;
37843;SDS011;63793;57.632;18.292;2023-06-24T08:01:56;2.38;;;2.17;;
37843;SDS011;63793;57.632;18.292;2023-06-24T08:04:23;3.47;;;2.63;;
37843;SDS011;63793;57.632;18.292;2023-06-24T08:06:50;2.25;;;2.05;;
37843;SDS011;63793;57.632;18.292;2023-06-24T08:09:17;3.47;;;2.67;;
37843;SDS011;63793;57.632;18.292;2023-06-24T08:11:44;2.03;;;1.92;;
37843;SDS011;63793;57.632;18.292;2023-06-24T08:14:11;2.60;;;2.22;;
37843;SDS011;63793;57.632;18.292;2023-06-24T08:16:38;3.08;;;2.70;;
37843;SDS011;63793;57.632;18.292;2023-06-24T08:19:04;4.00;;;2.00;;
37843;SDS011;63793;57.632;18.292;2023-06-24T08:21:31;6.35;;;2.67;;
37843;SDS011;63793;57.632;18.292;2023-06-24T08:23:58;2.92;;;2.22;;
37843;SDS011;63793;57.632;18.292;2023-06-24T08:26:25;4.07;;;2.78;;
37843;SDS011;63793;57.632;18.292;2023-06-24T08:28:52;4.95;;;2.28;;
37843;SDS011;63793;57.632;18.292;2023-06-24T08:31:19;3.30;;;2.65;;
37843;SDS011;63793;57.632;18.292;2023-06-24T08:33:51;4.85;;;2.58;;
37843;SDS011;63793;57.632;18.292;2023-06-24T08:36:21;3.60;;;2.75;;
37843;SDS011;63793;57.632;18.292;2023-06-24T08:38:48;2.72;;;1.90;;
37843;SDS011;63793;57.632;18.292;2023-06-24T08:41:15;3.55;;;2.35;;
37843;SDS011;63793;57.632;18.292;2023-06-24T08:43:42;2.05;;;1.80;;
37843;SDS011;63793;57.632;18.292;2023-06-24T08:46:09;3.08;;;2.10;;
37843;SDS011;63793;57.632;18.292;2023-06-24T08:48:38;2.75;;;2.28;;
37843;SDS011;63793;57.632;18.292;2023-06-24T08:51:07;4.15;;;2.33;;
37843;SDS011;63793;57.632;18.292;2023-06-24T08:53:38;2.75;;;2.53;;
37843;SDS011;63793;57.632;18.292;2023-06-24T08:56:08;2.10;;;1.90;;
37843;SDS011;63793;57.632;18.292;2023-06-24T08:58:36;3.67;;;2.33;;
37843;SDS011;63793;57.632;18.292;2023-06-24T09:01:03;3.42;;;2.13;;
37843;SDS011;63793;57.632;18.292;2023-06-24T09:03:30;2.15;;;1.92;;
37843;SDS011;63793;57.632;18.292;2023-06-24T09:05:57;5.13;;;2.40;;
37843;SDS011;63793;57.632;18.292;2023-06-24T09:08:24;2.20;;;2.00;;
37843;SDS011;63793;57.632;18.292;2023-06-24T09:10:54;3.15;;;1.55;;
37843;SDS011;63793;57.632;18.292;2023-06-24T09:13:33;2.42;;;2.22;;
37843;SDS011;63793;57.632;18.292;2023-06-24T09:16:12;2.75;;;2.25;;
37843;SDS011;63793;57.632;18.292;2023-06-24T09:18:47;2.53;;;2.33;;
37843;SDS011;63793;57.632;18.292;2023-06-24T09:21:34;1.80;;;1.70;;
37843;SDS011;63793;57.632;18.292;2023-06-24T09:24:01;1.83;;;1.73;;
37843;SDS011;63793;57.632;18.292;2023-06-24T09:26:29;2.20;;;2.00;;
37843;SDS011;63793;57.632;18.292;2023-06-24T09:28:57;2.05;;;1.85;;
37843;SDS011;63793;57.632;18.292;2023-06-24T09:31:24;8.77;;;1.95;;
37843;SDS011;63793;57.632;18.292;2023-06-24T09:33:51;2.50;;;2.30;;
37843;SDS011;63793;57.632;18.292;2023-06-24T09:36:18;2.28;;;2.00;;
37843;SDS011;63793;57.632;18.292;2023-06-24T09:38:45;1.63;;;1.52;;
37843;SDS011;63793;57.632;18.292;2023-06-24T09:41:12;3.42;;;2.13;;
37843;SDS011;63793;57.632;18.292;2023-06-24T09:43:41;2.20;;;2.00;;
37843;SDS011;63793;57.632;18.292;2023-06-24T09:46:10;2.58;;;1.95;;
37843;SDS011;63793;57.632;18.292;2023-06-24T09:48:38;2.70;;;2.20;;
37843;SDS011;63793;57.632;18.292;2023-06-24T09:51:05;4.15;;;2.75;;
37843;SDS011;63793;57.632;18.292;2023-06-24T09:53:33;3.85;;;2.03;;
37843;SDS011;63793;57.632;18.292;2023-06-24T09:56:03;2.60;;;2.40;;
37843;SDS011;63793;57.632;18.292;2023-06-24T09:58:32;3.25;;;2.13;;
37843;SDS011;63793;57.632;18.292;2023-06-24T10:01:02;2.72;;;2.35;;
37843;SDS011;63793;57.632;18.292;2023-06-24T10:03:33;2.03;;;1.90;;
37843;SDS011;63793;57.632;18.292;2023-06-24T10:06:03;1.95;;;1.83;;
37843;SDS011;63793;57.632;18.292;2023-06-24T10:08:32;4.18;;;3.60;;
37843;SDS011;63793;57.632;18.292;2023-06-24T10:11:00;1.83;;;1.73;;
37843;SDS011;63793;57.632;18.292;2023-06-24T10:13:28;2.42;;;2.17;;
37843;SDS011;63793;57.632;18.292;2023-06-24T10:15:55;2.47;;;2.28;;
37843;SDS011;63793;57.632;18.292;2023-06-24T10:18:36;3.08;;;2.50;;
37843;SDS011;63793;57.632;18.292;2023-06-24T10:21:05;3.08;;;2.67;;
37843;SDS011;63793;57.632;18.292;2023-06-24T10:26:21;3.00;;;2.70;;
37843;SDS011;63793;57.632;18.292;2023-06-24T10:29:08;2.97;;;2.78;;
37843;SDS011;63793;57.632;18.292;2023-06-24T10:37:01;3.90;;;2.25;;
37843;SDS011;63793;57.632;18.292;2023-06-24T10:39:49;2.20;;;2.00;;
37843;SDS011;63793;57.632;18.292;2023-06-24T10:42:39;3.60;;;2.53;;
37843;SDS011;63793;57.632;18.292;2023-06-24T10:47:37;2.00;;;1.90;;
37843;SDS011;63793;57.632;18.292;2023-06-24T10:50:06;2.45;;;1.92;;
37843;SDS011;63793;57.632;18.292;2023-06-24T10:52:37;4.03;;;2.25;;
37843;SDS011;63793;57.632;18.292;2023-06-24T10:55:05;3.58;;;2.30;;
37843;SDS011;63793;57.632;18.292;2023-06-24T10:57:33;1.90;;;1.70;;
37843;SDS011;63793;57.632;18.292;2023-06-24T11:00:00;2.65;;;2.25;;
37843;SDS011;63793;57.632;18.292;2023-06-24T11:02:29;4.30;;;3.25;;
37843;SDS011;63793;57.632;18.292;2023-06-24T11:04:57;2.97;;;2.33;;
37843;SDS011;63793;57.632;18.292;2023-06-24T11:07:26;2.38;;;2.17;;
37843;SDS011;63793;57.632;18.292;2023-06-24T11:09:58;2.67;;;2.47;;
37843;SDS011;63793;57.632;18.292;2023-06-24T11:12:29;7.27;;;2.00;;
37843;SDS011;63793;57.632;18.292;2023-06-24T11:14:57;2.38;;;2.13;;
37843;SDS011;63793;57.632;18.292;2023-06-24T11:17:26;5.47;;;2.20;;
37843;SDS011;63793;57.632;18.292;2023-06-24T11:19:53;3.03;;;2.72;;
37843;SDS011;63793;57.632;18.292;2023-06-24T11:22:21;2.22;;;2.03;;
37843;SDS011;63793;57.632;18.292;2023-06-24T11:24:49;2.92;;;2.20;;
37843;SDS011;63793;57.632;18.292;2023-06-24T11:27:23;2.83;;;2.53;;
37843;SDS011;63793;57.632;18.292;2023-06-24T11:29:54;3.13;;;2.15;;
37843;SDS011;63793;57.632;18.292;2023-06-24T11:32:24;2.38;;;2.25;;
37843;SDS011;63793;57.632;18.292;2023-06-24T11:35:00;2.83;;;2.53;;
37843;SDS011;63793;57.632;18.292;2023-06-24T11:37:31;2.28;;;2.05;;
37843;SDS011;63793;57.632;18.292;2023-06-24T11:40:00;2.05;;;1.67;;
37843;SDS011;63793;57.632;18.292;2023-06-24T11:42:32;2.28;;;2.08;;
37843;SDS011;63793;57.632;18.292;2023-06-24T11:45:05;3.90;;;2.72;;
37843;SDS011;63793;57.632;18.292;2023-06-24T11:47:34;1.92;;;1.77;;
37843;SDS011;63793;57.632;18.292;2023-06-24T11:50:02;3.88;;;2.20;;
37843;SDS011;63793;57.632;18.292;2023-06-24T11:52:40;3.78;;;2.40;;
37843;SDS011;63793;57.632;18.292;2023-06-24T11:57:47;2.22;;;2.03;;
37843;SDS011;63793;57.632;18.292;2023-06-24T12:00:21;2.33;;;1.92;;
37843;SDS011;63793;57.632;18.292;2023-06-24T12:02:50;4.68;;;4.28;;
37843;SDS011;63793;57.632;18.292;2023-06-24T12:05:26;2.50;;;2.30;;
37843;SDS011;63793;57.632;18.292;2023-06-24T12:07:58;3.85;;;2.50;;
37843;SDS011;63793;57.632;18.292;2023-06-24T12:10:31;5.47;;;2.35;;
37843;SDS011;63793;57.632;18.292;2023-06-24T12:13:00;2.57;;;2.27;;
37843;SDS011;63793;57.632;18.292;2023-06-24T12:15:28;4.25;;;2.85;;
37843;SDS011;63793;57.632;18.292;2023-06-24T12:17:55;2.03;;;1.85;;
37843;SDS011;63793;57.632;18.292;2023-06-24T12:20:24;2.40;;;2.20;;
37843;SDS011;63793;57.632;18.292;2023-06-24T12:22:57;3.08;;;2.05;;
37843;SDS011;63793;57.632;18.292;2023-06-24T12:25:24;2.85;;;2.40;;
37843;SDS011;63793;57.632;18.292;2023-06-24T12:27:51;4.00;;;2.28;;
37843;SDS011;63793;57.632;18.292;2023-06-24T12:30:18;4.80;;;2.13;;
37843;SDS011;63793;57.632;18.292;2023-06-24T12:32:46;3.97;;;2.35;;
37843;SDS011;63793;57.632;18.292;2023-06-24T12:35:13;2.40;;;2.20;;
37843;SDS011;63793;57.632;18.292;2023-06-24T12:37:40;2.65;;;1.98;;
37843;SDS011;63793;57.632;18.292;2023-06-24T12:40:07;3.95;;;2.92;;
37843;SDS011;63793;57.632;18.292;2023-06-24T12:42:34;2.33;;;2.13;;
37843;SDS011;63793;57.632;18.292;2023-06-24T12:45:01;2.60;;;2.40;;
37843;SDS011;63793;57.632;18.292;2023-06-24T12:47:28;3.58;;;1.80;;
37843;SDS011;63793;57.632;18.292;2023-06-24T12:49:55;2.55;;;1.83;;
37843;SDS011;63793;57.632;18.292;2023-06-24T12:52:22;2.47;;;2.22;;
37843;SDS011;63793;57.632;18.292;2023-06-24T12:54:49;3.20;;;2.05;;
37843;SDS011;63793;57.632;18.292;2023-06-24T12:57:16;2.28;;;2.08;;
37843;SDS011;63793;57.632;18.292;2023-06-24T12:59:43;1.90;;;1.70;;
37843;SDS011;63793;57.632;18.292;2023-06-24T13:02:10;2.78;;;2.22;;
37843;SDS011;63793;57.632;18.292;2023-06-24T13:04:37;1.92;;;1.80;;
37843;SDS011;63793;57.632;18.292;2023-06-24T13:07:04;2.83;;;2.33;;
37843;SDS011;63793;57.632;18.292;2023-06-24T13:09:31;1.98;;;1.88;;
37843;SDS011;63793;57.632;18.292;2023-06-24T13:11:58;3.70;;;2.40;;
37843;SDS011;63793;57.632;18.292;2023-06-24T13:14:25;2.38;;;2.10;;
37843;SDS011;63793;57.632;18.292;2023-06-24T13:16:54;2.20;;;1.52;;
37843;SDS011;63793;57.632;18.292;2023-06-24T13:19:22;3.47;;;1.85;;
37843;SDS011;63793;57.632;18.292;2023-06-24T13:21:49;2.60;;;2.30;;
37843;SDS011;63793;57.632;18.292;2023-06-24T13:24:16;2.60;;;1.88;;
37843;SDS011;63793;57.632;18.292;2023-06-24T13:26:43;1.70;;;1.60;;
37843;SDS011;63793;57.632;18.292;2023-06-24T13:29:11;1.67;;;1.58;;
37843;SDS011;63793;57.632;18.292;2023-06-24T13:31:38;2.70;;;1.73;;
37843;SDS011;63793;57.632;18.292;2023-06-24T13:34:06;2.63;;;2.42;;
37843;SDS011;63793;57.632;18.292;2023-06-24T13:36:36;2.10;;;1.90;;
37843;SDS011;63793;57.632;18.292;2023-06-24T13:39:04;1.88;;;1.63;;
37843;SDS011;63793;57.632;18.292;2023-06-24T13:41:32;2.80;;;2.60;;
37843;SDS011;63793;57.632;18.292;2023-06-24T13:44:03;2.63;;;2.28;;
37843;SDS011;63793;57.632;18.292;2023-06-24T13:46:31;1.88;;;1.55;;
37843;SDS011;63793;57.632;18.292;2023-06-24T13:48:58;2.15;;;1.95;;
37843;SDS011;63793;57.632;18.292;2023-06-24T13:51:30;2.35;;;1.70;;
37843;SDS011;63793;57.632;18.292;2023-06-24T13:53:57;2.53;;;2.25;;
37843;SDS011;63793;57.632;18.292;2023-06-24T13:56:24;3.53;;;3.22;;
37843;SDS011;63793;57.632;18.292;2023-06-24T13:58:53;5.32;;;2.97;;
37843;SDS011;63793;57.632;18.292;2023-06-24T14:01:21;2.13;;;1.98;;
37843;SDS011;63793;57.632;18.292;2023-06-24T14:03:49;2.75;;;2.55;;
37843;SDS011;63793;57.632;18.292;2023-06-24T14:06:17;2.17;;;2.08;;
37843;SDS011;63793;57.632;18.292;2023-06-24T14:08:46;2.10;;;1.90;;
37843;SDS011;63793;57.632;18.292;2023-06-24T14:11:13;2.85;;;2.05;;
37843;SDS011;63793;57.632;18.292;2023-06-24T14:13:40;1.92;;;1.70;;
37843;SDS011;63793;57.632;18.292;2023-06-24T14:16:07;3.92;;;1.90;;
37843;SDS011;63793;57.632;18.292;2023-06-24T14:18:35;2.22;;;1.95;;
37843;SDS011;63793;57.632;18.292;2023-06-24T14:21:03;2.25;;;2.05;;
37843;SDS011;63793;57.632;18.292;2023-06-24T14:23:31;1.98;;;1.70;;
37843;SDS011;63793;57.632;18.292;2023-06-24T14:25:59;2.00;;;1.90;;
37843;SDS011;63793;57.632;18.292;2023-06-24T14:28:26;2.20;;;1.85;;
37843;SDS011;63793;57.632;18.292;2023-06-24T14:30:53;2.35;;;1.77;;
37843;SDS011;63793;57.632;18.292;2023-06-24T14:33:20;2.67;;;1.95;;
37843;SDS011;63793;57.632;18.292;2023-06-24T14:35:47;3.42;;;2.03;;
37843;SDS011;63793;57.632;18.292;2023-06-24T14:38:13;2.58;;;2.38;;
37843;SDS011;63793;57.632;18.292;2023-06-24T14:40:40;1.90;;;1.80;;
37843;SDS011;63793;57.632;18.292;2023-06-24T14:43:07;3.85;;;2.28;;
37843;SDS011;63793;57.632;18.292;2023-06-24T14:45:34;4.00;;;2.28;;
37843;SDS011;63793;57.632;18.292;2023-06-24T14:48:01;3.35;;;3.05;;
37843;SDS011;63793;57.632;18.292;2023-06-24T14:50:28;4.63;;;2.78;;
37843;SDS011;63793;57.632;18.292;2023-06-24T14:52:55;3.20;;;2.90;;
37843;SDS011;63793;57.632;18.292;2023-06-24T14:55:22;3.30;;;3.05;;
37843;SDS011;63793;57.632;18.292;2023-06-24T14:57:49;4.90;;;3.03;;
37843;SDS011;63793;57.632;18.292;2023-06-24T15:00:16;4.45;;;3.65;;
37843;SDS011;63793;57.632;18.292;2023-06-24T15:02:43;5.10;;;3.78;;